Time;durP1;ratioP1;P1;durP2;ratioP2;P2;SDS_P1;SDS_P2;PMS_P1;PMS_P2;Temp;Humidity;BMP_temperature;BMP_pressure;BME280_temperature;BME280_humidity;BME280_pressure;Samples;Min_cycle;Max_cycle;Signal;HPM_P1;HPM_P2
2023/08/16 00:01:36;;;;;;;15.85;10.95;;;14.70;99.90;;;;;;5054938;28;20045;-74
2023/08/16 00:04:01;;;;;;;17.80;10.75;;;14.70;99.90;;;;;;5055889;28;20056;-74
2023/08/16 00:06:27;;;;;;;15.55;10.43;;;14.70;99.90;;;;;;5071334;28;20136;-74
2023/08/16 00:08:58;;;;;;;17.77;10.80;;;14.60;99.90;;;;;;5054635;28;20051;-74
2023/08/16 00:11:24;;;;;;;16.90;10.27;;;14.60;99.90;;;;;;5071702;28;20045;-74
2023/08/16 00:13:50;;;;;;;16.20;10.52;;;14.60;99.90;;;;;;5055962;28;20056;-74
2023/08/16 00:16:16;;;;;;;15.25;11.00;;;14.60;99.90;;;;;;5071030;28;20037;-74
2023/08/16 00:18:41;;;;;;;18.10;11.00;;;14.50;99.90;;;;;;5055836;28;20045;-74
2023/08/16 00:21:07;;;;;;;15.52;9.93;;;14.60;99.90;;;;;;5071074;28;20045;-74
2023/08/16 00:23:32;;;;;;;14.23;9.43;;;14.50;99.90;;;;;;5071101;28;20400;-74
2023/08/16 00:25:58;;;;;;;14.05;9.65;;;14.60;99.90;;;;;;5054686;28;20045;-74
2023/08/16 00:28:25;;;;;;;13.52;9.50;;;14.50;99.90;;;;;;5055269;28;20088;-74
2023/08/16 00:30:53;;;;;;;14.80;10.50;;;14.50;99.90;;;;;;5055566;28;20049;-74
2023/08/16 00:33:20;;;;;;;14.90;9.82;;;14.50;99.90;;;;;;5054143;28;20438;-74
2023/08/16 00:35:45;;;;;;;15.38;10.45;;;14.50;99.90;;;;;;5054284;28;20044;-74
2023/08/16 00:38:11;;;;;;;12.00;9.23;;;14.50;99.90;;;;;;5070742;28;20078;-74
2023/08/16 00:40:36;;;;;;;16.25;11.38;;;14.50;99.90;;;;;;5081863;28;20139;-74
2023/08/16 00:43:03;;;;;;;14.70;9.90;;;14.50;99.90;;;;;;5075373;28;20048;-74
2023/08/16 00:45:29;;;;;;;17.40;10.75;;;14.50;99.90;;;;;;5074101;28;20087;-74
2023/08/16 00:47:56;;;;;;;10.65;8.60;;;14.40;99.90;;;;;;5073815;28;20480;-74
2023/08/16 00:50:23;;;;;;;14.95;8.85;;;14.40;99.90;;;;;;5075125;28;20094;-74
2023/08/16 00:52:51;;;;;;;12.57;8.77;;;14.40;99.90;;;;;;5090967;28;20044;-74
2023/08/16 00:55:20;;;;;;;13.18;9.05;;;14.40;99.90;;;;;;5074109;28;20066;-74
2023/08/16 00:57:52;;;;;;;13.68;9.55;;;14.40;99.90;;;;;;5075115;28;20040;-74
2023/08/16 01:00:18;;;;;;;16.55;9.35;;;14.40;99.90;;;;;;5073617;28;20357;-74
2023/08/16 01:02:44;;;;;;;11.55;8.63;;;14.40;99.90;;;;;;5090471;28;20075;-74
2023/08/16 01:05:09;;;;;;;16.80;9.70;;;14.40;99.90;;;;;;5090447;28;20098;-74
2023/08/16 01:07:35;;;;;;;14.27;9.98;;;14.40;99.90;;;;;;5090631;28;20039;-74
2023/08/16 01:10:01;;;;;;;15.40;8.95;;;14.40;99.90;;;;;;5074937;28;20438;-74
2023/08/16 01:12:27;;;;;;;14.68;9.95;;;14.40;99.90;;;;;;5073796;28;20048;-74
2023/08/16 01:15:17;;;;;;;17.17;9.55;;;14.30;99.90;;;;;;5090140;28;20178;-74
2023/08/16 01:17:45;;;;;;;13.13;8.95;;;14.30;99.90;;;;;;5073404;28;20045;-74
2023/08/16 01:20:12;;;;;;;17.27;9.43;;;14.30;99.90;;;;;;5074708;28;20041;-74
2023/08/16 01:22:50;;;;;;;14.88;10.52;;;14.30;99.90;;;;;;5074618;28;20045;-74
2023/08/16 01:25:36;;;;;;;15.68;10.55;;;14.30;99.90;;;;;;5090315;28;20041;-74
2023/08/16 01:28:05;;;;;;;14.50;9.38;;;14.30;99.90;;;;;;5072817;28;20056;-74
2023/08/16 01:30:32;;;;;;;15.10;9.63;;;14.20;99.90;;;;;;5090272;28;20178;-74
2023/08/16 01:33:08;;;;;;;16.75;10.38;;;14.20;99.90;;;;;;5089340;28;20051;-74
2023/08/16 01:35:37;;;;;;;17.77;9.93;;;14.20;99.90;;;;;;5074221;28;20514;-74
2023/08/16 01:38:04;;;;;;;13.73;9.63;;;14.30;99.90;;;;;;5072969;28;20044;-74
2023/08/16 01:41:02;;;;;;;15.38;10.88;;;14.20;99.90;;;;;;5074122;28;20036;-74
2023/08/16 01:43:30;;;;;;;15.35;10.48;;;14.30;99.90;;;;;;5065787;28;20059;-73
2023/08/16 01:45:58;;;;;;;14.27;10.20;;;14.30;99.90;;;;;;5072976;28;20086;-74
2023/08/16 01:48:26;;;;;;;16.67;10.65;;;14.30;99.90;;;;;;5072699;28;20048;-74
2023/08/16 01:50:52;;;;;;;18.38;10.63;;;14.30;99.90;;;;;;5072946;28;20392;-74
2023/08/16 01:53:19;;;;;;;17.23;10.80;;;14.30;99.90;;;;;;5072756;28;20534;-74
2023/08/16 01:55:45;;;;;;;15.30;10.50;;;14.30;99.90;;;;;;5072929;28;20048;-74
2023/08/16 01:58:13;;;;;;;14.60;9.90;;;14.30;99.90;;;;;;5072969;28;20044;-74
2023/08/16 02:00:39;;;;;;;20.45;13.63;;;14.20;99.90;;;;;;5072488;28;20070;-74
2023/08/16 02:03:04;;;;;;;20.80;13.23;;;14.40;99.90;;;;;;5074092;28;20049;-74
2023/08/16 02:05:30;;;;;;;17.23;12.70;;;14.40;99.90;;;;;;5072536;28;20046;-74
2023/08/16 02:07:56;;;;;;;18.40;11.93;;;14.40;99.90;;;;;;5072681;28;20044;-74
2023/08/16 02:10:21;;;;;;;18.90;12.27;;;14.40;99.90;;;;;;5072581;28;20080;-74
2023/08/16 02:12:47;;;;;;;19.77;12.57;;;14.40;99.90;;;;;;5072643;28;20044;-74
2023/08/16 02:15:13;;;;;;;19.88;12.27;;;14.40;99.90;;;;;;5072567;28;20062;-74
2023/08/16 02:17:39;;;;;;;17.55;11.20;;;14.40;99.90;;;;;;5072681;28;20087;-74
2023/08/16 02:20:06;;;;;;;17.73;11.27;;;14.40;99.90;;;;;;5072394;28;20456;-74
2023/08/16 02:22:32;;;;;;;21.98;11.95;;;14.40;99.90;;;;;;5072625;28;20087;-74
2023/08/16 02:24:57;;;;;;;18.27;12.00;;;14.30;99.90;;;;;;5072406;28;20075;-74
2023/08/16 02:27:23;;;;;;;15.30;10.43;;;14.30;99.90;;;;;;5073522;28;20044;-74
2023/08/16 02:29:51;;;;;;;16.33;10.38;;;14.30;99.90;;;;;;5072003;28;20053;-74
2023/08/16 02:32:17;;;;;;;17.85;9.82;;;14.20;99.90;;;;;;5072193;28;20128;-74
2023/08/16 02:34:42;;;;;;;14.63;9.90;;;14.20;99.90;;;;;;5073509;28;20128;-74
2023/08/16 02:37:08;;;;;;;14.95;10.13;;;14.10;99.90;;;;;;5072508;28;20052;-74
2023/08/16 02:39:33;;;;;;;15.63;9.30;;;14.00;99.90;;;;;;5072525;28;20036;-74
2023/08/16 02:41:59;;;;;;;15.05;9.20;;;14.00;99.90;;;;;;5071937;28;20129;-74
2023/08/16 02:44:25;;;;;;;14.65;9.05;;;14.00;99.90;;;;;;5073821;28;20052;-74
2023/08/16 02:46:50;;;;;;;13.73;9.32;;;13.90;99.90;;;;;;5077588;28;20045;-74
2023/08/16 02:49:16;;;;;;;13.60;9.70;;;13.90;99.90;;;;;;5076162;28;20049;-74
2023/08/16 02:51:41;;;;;;;14.95;9.82;;;13.90;99.90;;;;;;5076414;28;20127;-74
2023/08/16 02:54:07;;;;;;;14.45;10.68;;;13.90;99.90;;;;;;5076459;28;20044;-74
2023/08/16 02:56:33;;;;;;;17.95;11.10;;;13.80;99.90;;;;;;5076385;28;20365;-74
2023/08/16 02:58:58;;;;;;;16.40;10.93;;;13.90;99.90;;;;;;5077404;28;20045;-74
2023/08/16 03:01:24;;;;;;;18.52;10.50;;;13.80;99.90;;;;;;5076175;28;20388;-74
2023/08/16 03:03:50;;;;;;;15.75;10.13;;;13.80;99.90;;;;;;5075781;28;20399;-74
2023/08/16 03:06:15;;;;;;;13.20;8.80;;;13.80;99.90;;;;;;5076065;28;20127;-74
2023/08/16 03:08:41;;;;;;;13.73;9.02;;;13.70;99.90;;;;;;5075845;28;20048;-74
2023/08/16 03:11:07;;;;;;;15.57;8.85;;;13.80;99.90;;;;;;5075872;28;20086;-74
2023/08/16 03:13:32;;;;;;;18.15;10.10;;;13.70;99.90;;;;;;5075887;28;20052;-74
2023/08/16 03:15:58;;;;;;;12.35;8.75;;;13.70;99.90;;;;;;5075896;28;20052;-74
2023/08/16 03:18:23;;;;;;;14.90;9.45;;;13.70;99.90;;;;;;5075737;28;20492;-74
2023/08/16 03:20:49;;;;;;;12.50;8.95;;;13.60;99.90;;;;;;5076868;28;20127;-74
2023/08/16 03:23:15;;;;;;;12.90;8.50;;;13.70;99.90;;;;;;5075887;28;20549;-73
2023/08/16 03:25:41;;;;;;;15.98;9.23;;;13.60;99.90;;;;;;5075751;28;20446;-74
2023/08/16 03:28:11;;;;;;;11.93;8.05;;;13.60;99.90;;;;;;5074960;28;20068;-74
2023/08/16 03:30:36;;;;;;;14.15;9.30;;;13.60;99.90;;;;;;5076828;28;20111;-74
2023/08/16 03:33:02;;;;;;;13.90;8.95;;;13.60;99.90;;;;;;5075477;28;20441;-74
2023/08/16 03:35:28;;;;;;;13.60;8.20;;;13.60;99.90;;;;;;5075668;28;20413;-73
2023/08/16 03:37:53;;;;;;;15.20;8.23;;;13.60;99.90;;;;;;5075634;28;20049;-74
2023/08/16 03:40:19;;;;;;;12.73;7.50;;;13.50;99.90;;;;;;5075270;28;20041;-73
2023/08/16 03:42:47;;;;;;;12.57;8.68;;;13.50;99.90;;;;;;5075153;28;20108;-73
2023/08/16 03:45:13;;;;;;;11.93;8.00;;;13.50;99.90;;;;;;5076467;28;20044;-73
2023/08/16 03:47:39;;;;;;;13.82;9.00;;;13.50;99.90;;;;;;5074991;28;20048;-74
2023/08/16 03:50:05;;;;;;;15.82;9.05;;;13.50;99.90;;;;;;5074926;28;20055;-73
2023/08/16 03:52:31;;;;;;;11.63;7.93;;;13.50;99.90;;;;;;5076369;28;20041;-74
2023/08/16 03:54:57;;;;;;;11.45;7.47;;;13.40;99.90;;;;;;5074768;28;20206;-73
2023/08/16 03:57:23;;;;;;;15.25;9.25;;;13.50;99.90;;;;;;5074483;28;20044;-74
2023/08/16 03:59:52;;;;;;;16.17;9.15;;;13.40;99.90;;;;;;5074848;28;20581;-74
2023/08/16 04:02:18;;;;;;;16.20;9.77;;;13.40;99.90;;;;;;5075115;28;20491;-74
2023/08/16 04:04:45;;;;;;;19.70;11.57;;;13.40;99.90;;;;;;5075132;28;20070;-74
2023/08/16 04:07:11;;;;;;;14.90;10.27;;;13.40;99.90;;;;;;5074876;28;20080;-74
2023/08/16 04:09:36;;;;;;;14.65;9.68;;;13.40;99.90;;;;;;5074272;28;20078;-74
2023/08/16 04:12:02;;;;;;;14.30;9.57;;;13.30;99.90;;;;;;5073735;28;20051;-74
2023/08/16 04:14:28;;;;;;;14.30;9.15;;;13.30;99.90;;;;;;5074521;28;20052;-73
2023/08/16 04:16:53;;;;;;;14.27;7.72;;;13.30;99.90;;;;;;5075670;28;20380;-73
2023/08/16 04:19:19;;;;;;;13.75;7.90;;;13.30;99.90;;;;;;5074322;28;20056;-74
2023/08/16 04:21:45;;;;;;;14.98;9.35;;;13.30;99.90;;;;;;5075553;28;20051;-74
2023/08/16 04:24:10;;;;;;;11.93;8.40;;;13.30;99.90;;;;;;5074433;28;20055;-73
2023/08/16 04:26:36;;;;;;;12.18;8.70;;;13.30;99.90;;;;;;5075698;28;20037;-73
2023/08/16 04:29:04;;;;;;;14.32;8.23;;;13.30;99.90;;;;;;5073866;28;20439;-73
2023/08/16 04:31:29;;;;;;;12.25;8.27;;;13.20;99.90;;;;;;5074275;28;20399;-73
2023/08/16 04:33:55;;;;;;;13.52;8.20;;;13.30;99.90;;;;;;5075243;28;20040;-73
2023/08/16 04:36:21;;;;;;;13.55;9.00;;;13.30;99.90;;;;;;5074194;28;20083;-74
2023/08/16 04:38:46;;;;;;;13.65;7.90;;;13.30;99.90;;;;;;5074285;28;20447;-74
2023/08/16 04:41:15;;;;;;;11.95;7.43;;;13.30;99.90;;;;;;5074072;28;20068;-74
2023/08/16 04:43:40;;;;;;;12.32;8.30;;;13.40;99.90;;;;;;5073933;28;20105;-74
2023/08/16 04:46:09;;;;;;;11.18;7.93;;;13.30;99.90;;;;;;5074293;28;20123;-73
2023/08/16 04:48:35;;;;;;;11.43;7.22;;;13.30;99.90;;;;;;5073604;28;20487;-73
2023/08/16 04:51:00;;;;;;;10.23;6.80;;;13.30;99.90;;;;;;5073910;28;20044;-74
2023/08/16 04:53:26;;;;;;;10.57;6.97;;;13.30;99.90;;;;;;5075192;28;20045;-74
2023/08/16 04:55:52;;;;;;;8.75;6.93;;;13.40;99.90;;;;;;5074630;28;20048;-73
2023/08/16 04:58:17;;;;;;;10.70;6.70;;;13.40;99.90;;;;;;5075035;28;20047;-74
2023/08/16 05:00:43;;;;;;;8.98;6.28;;;13.40;99.90;;;;;;5075014;28;20047;-74
2023/08/16 05:03:08;;;;;;;10.25;5.97;;;13.40;99.90;;;;;;5073558;28;20056;-74
2023/08/16 05:05:34;;;;;;;9.32;5.75;;;13.50;99.90;;;;;;5074834;28;20037;-73
2023/08/16 05:08:00;;;;;;;11.82;6.25;;;13.50;99.90;;;;;;5072278;28;20441;-74
2023/08/16 05:10:25;;;;;;;8.40;5.75;;;13.60;99.90;;;;;;5073220;28;20052;-74
2023/08/16 05:12:51;;;;;;;9.82;5.85;;;13.60;99.90;;;;;;5073640;28;20068;-74
2023/08/16 05:15:17;;;;;;;8.55;5.60;;;13.60;99.90;;;;;;5073614;28;20052;-74
2023/08/16 05:17:42;;;;;;;7.82;5.30;;;13.70;99.90;;;;;;5074635;28;20539;-73
2023/08/16 05:20:10;;;;;;;8.23;5.80;;;13.70;99.90;;;;;;5072994;28;20207;-74
2023/08/16 05:22:35;;;;;;;8.85;6.07;;;13.80;99.90;;;;;;5073420;28;20074;-74
2023/08/16 05:25:01;;;;;;;8.00;5.60;;;13.80;99.90;;;;;;5074482;28;20045;-74
2023/08/16 05:27:36;;;;;;;9.45;6.10;;;13.90;99.90;;;;;;5074126;28;20044;-74
2023/08/16 05:30:05;;;;;;;12.63;6.35;;;14.00;99.90;;;;;;5072387;28;20076;-74
2023/08/16 05:32:30;;;;;;;8.70;6.28;;;14.00;99.90;;;;;;5072874;28;20048;-74
2023/08/16 05:34:56;;;;;;;10.30;7.60;;;14.10;99.90;;;;;;5072752;28;20094;-73
2023/08/16 05:37:22;;;;;;;9.65;7.15;;;14.20;99.90;;;;;;5072964;28;20044;-74
2023/08/16 05:39:47;;;;;;;12.45;7.35;;;14.40;99.90;;;;;;5073031;28;20480;-73
2023/08/16 05:42:13;;;;;;;11.10;7.80;;;14.50;99.90;;;;;;5072659;28;20041;-74
2023/08/16 05:44:39;;;;;;;15.27;8.55;;;14.70;99.90;;;;;;5072919;28;20052;-74
2023/08/16 05:47:07;;;;;;;14.27;10.00;;;14.80;99.90;;;;;;5072822;28;20032;-74
2023/08/16 05:49:36;;;;;;;11.15;8.32;;;14.90;99.90;;;;;;5072412;28;20055;-74
2023/08/16 05:52:01;;;;;;;12.35;8.27;;;15.00;99.90;;;;;;5074049;28;20040;-74
2023/08/16 05:54:27;;;;;;;10.63;7.60;;;14.90;99.90;;;;;;5072614;28;20052;-74
2023/08/16 05:56:52;;;;;;;12.35;8.43;;;15.10;99.90;;;;;;5072371;28;20047;-74
2023/08/16 05:59:18;;;;;;;16.65;10.25;;;15.10;99.90;;;;;;5072835;28;20051;-73
2023/08/16 06:01:44;;;;;;;14.50;9.80;;;15.30;99.90;;;;;;5072325;28;20044;-74
2023/08/16 06:04:09;;;;;;;13.00;10.15;;;15.40;99.90;;;;;;5072277;28;20049;-74
2023/08/16 06:06:35;;;;;;;14.15;9.98;;;15.50;99.90;;;;;;5055724;28;20093;-74
2023/08/16 06:09:00;;;;;;;15.98;10.52;;;15.70;99.90;;;;;;5073773;28;20051;-74
2023/08/16 06:11:26;;;;;;;13.80;10.20;;;15.90;99.90;;;;;;5072519;28;20110;-74
2023/08/16 06:13:52;;;;;;;14.73;11.23;;;16.10;99.90;;;;;;5072246;28;20044;-74
2023/08/16 06:16:17;;;;;;;16.23;10.48;;;16.30;99.90;;;;;;5072394;28;20041;-74
2023/08/16 06:18:44;;;;;;;14.50;10.65;;;16.50;99.90;;;;;;5072972;28;20523;-74
2023/08/16 06:21:10;;;;;;;15.98;9.43;;;16.70;99.90;;;;;;5072124;28;20442;-74
2023/08/16 06:23:35;;;;;;;15.85;10.18;;;16.90;99.90;;;;;;5072423;28;20500;-74
2023/08/16 06:26:01;;;;;;;14.38;10.13;;;17.00;99.90;;;;;;5070788;28;20068;-75
2023/08/16 06:28:28;;;;;;;15.00;9.30;;;17.10;99.90;;;;;;5071610;28;20044;-73
2023/08/16 06:30:55;;;;;;;13.82;9.00;;;17.30;99.90;;;;;;5071850;28;20190;-76
2023/08/16 06:33:21;;;;;;;10.75;7.45;;;17.40;99.90;;;;;;5069829;28;20085;-74
2023/08/16 06:35:47;;;;;;;10.27;7.18;;;17.60;99.90;;;;;;5074914;28;20067;-74
2023/08/16 06:38:13;;;;;;;9.85;6.93;;;17.80;99.90;;;;;;5065643;28;20044;-74
2023/08/16 06:40:39;;;;;;;11.05;7.70;;;17.90;99.90;;;;;;5077732;28;20048;-74
2023/08/16 06:43:07;;;;;;;10.35;7.40;;;18.10;99.90;;;;;;5062876;28;20041;-74
2023/08/16 06:45:33;;;;;;;9.13;6.68;;;18.20;99.90;;;;;;5079624;28;20437;-74
2023/08/16 06:47:59;;;;;;;15.20;5.72;;;18.40;99.90;;;;;;5079721;28;20478;-74
2023/08/16 06:50:26;;;;;;;9.60;6.03;;;18.50;99.90;;;;;;5061881;28;20052;-73
2023/08/16 06:52:52;;;;;;;10.30;5.50;;;18.60;99.90;;;;;;5070540;28;20037;-73
2023/08/16 06:55:18;;;;;;;7.65;4.60;;;18.70;99.90;;;;;;5052920;28;20095;-73
2023/08/16 06:57:44;;;;;;;6.57;3.58;;;18.90;99.90;;;;;;5052021;28;20460;-73
2023/08/16 07:00:11;;;;;;;7.45;4.20;;;18.90;99.90;;;;;;5068301;28;20049;-75
2023/08/16 07:02:37;;;;;;;8.85;3.80;;;18.90;99.90;;;;;;5051400;28;20550;-73
2023/08/16 07:05:03;;;;;;;4.97;2.72;;;18.90;99.90;;;;;;5068239;28;20044;-74
2023/08/16 07:07:31;;;;;;;6.03;2.17;;;18.90;99.90;;;;;;5051484;28;20090;-74
2023/08/16 07:09:56;;;;;;;5.85;2.30;;;19.00;99.90;;;;;;5074761;28;20496;-74
2023/08/16 07:12:22;;;;;;;5.15;2.78;;;19.20;99.90;;;;;;5080042;28;20059;-74
2023/08/16 07:14:49;;;;;;;7.45;2.75;;;19.30;99.90;;;;;;5063701;28;20049;-74
2023/08/16 07:17:15;;;;;;;5.25;2.40;;;19.40;99.90;;;;;;5051536;28;20448;-74
2023/08/16 07:19:40;;;;;;;6.70;2.40;;;19.50;99.90;;;;;;5076659;28;20590;-74
2023/08/16 07:22:06;;;;;;;6.13;2.83;;;19.60;99.90;;;;;;5079282;28;20049;-74
2023/08/16 07:24:31;;;;;;;3.80;1.90;;;19.60;99.90;;;;;;5080545;28;20102;-74
2023/08/16 07:26:58;;;;;;;6.28;2.00;;;19.70;99.90;;;;;;5077121;28;20147;-74
2023/08/16 07:29:24;;;;;;;7.00;2.10;;;19.80;99.90;;;;;;5070819;28;20057;-74
2023/08/16 07:31:51;;;;;;;3.95;2.22;;;19.70;99.90;;;;;;5081431;28;20053;-74
2023/08/16 07:34:16;;;;;;;5.20;2.10;;;19.80;99.90;;;;;;5067296;28;20080;-74
2023/08/16 07:36:42;;;;;;;4.43;2.15;;;19.80;99.90;;;;;;5072744;28;20071;-74
2023/08/16 07:39:07;;;;;;;7.07;2.60;;;19.90;99.90;;;;;;5065573;28;20084;-74
2023/08/16 07:41:34;;;;;;;2.80;1.80;;;20.00;99.90;;;;;;5066987;28;20063;-74
2023/08/16 07:43:59;;;;;;;5.85;2.20;;;20.10;99.90;;;;;;5058182;28;20415;-74
2023/08/16 07:46:25;;;;;;;4.22;1.88;;;20.20;99.90;;;;;;5079527;28;20124;-74
2023/08/16 07:48:51;;;;;;;3.85;1.83;;;20.20;99.90;;;;;;5066985;28;20056;-74
2023/08/16 07:51:16;;;;;;;4.50;1.83;;;20.30;99.90;;;;;;5081652;28;20048;-74
2023/08/16 07:53:42;;;;;;;3.88;1.75;;;20.40;99.90;;;;;;5060656;28;20076;-74
2023/08/16 07:56:08;;;;;;;4.10;1.80;;;20.50;99.90;;;;;;5085015;28;20044;-74
2023/08/16 07:58:33;;;;;;;2.58;1.42;;;20.40;99.90;;;;;;5064549;28;20033;-74
2023/08/16 08:00:59;;;;;;;2.53;1.48;;;20.40;99.90;;;;;;5080086;28;20131;-75
2023/08/16 08:03:25;;;;;;;4.57;1.80;;;20.60;99.90;;;;;;5065622;28;20092;-74
2023/08/16 08:05:53;;;;;;;4.00;1.50;;;20.60;99.90;;;;;;5065139;28;20502;-74
2023/08/16 08:08:18;;;;;;;5.43;1.92;;;20.60;99.90;;;;;;5072836;28;20060;-74
2023/08/16 08:10:44;;;;;;;5.60;1.88;;;20.70;99.90;;;;;;5082281;28;20041;-74
2023/08/16 08:13:10;;;;;;;5.47;1.77;;;20.70;99.90;;;;;;5074504;28;20049;-74
2023/08/16 08:15:36;;;;;;;4.55;1.67;;;20.80;99.90;;;;;;5061715;28;20048;-74
2023/08/16 08:18:02;;;;;;;3.75;1.60;;;20.70;99.90;;;;;;5054213;28;20037;-74
2023/08/16 08:20:28;;;;;;;3.97;1.45;;;20.80;99.90;;;;;;5054099;28;20202;-74
2023/08/16 08:22:53;;;;;;;7.75;1.85;;;21.00;99.90;;;;;;5074830;28;20041;-74
2023/08/16 08:25:19;;;;;;;2.75;1.38;;;20.90;99.90;;;;;;5077828;28;20052;-74
2023/08/16 08:27:45;;;;;;;5.60;1.80;;;20.90;99.90;;;;;;5059945;28;20044;-75
2023/08/16 08:30:11;;;;;;;4.30;1.40;;;20.90;99.90;;;;;;5075579;28;20061;-74
2023/08/16 08:32:37;;;;;;;5.25;1.50;;;21.10;99.90;;;;;;5056608;28;20056;-74
2023/08/16 08:35:04;;;;;;;5.72;1.58;;;21.00;99.90;;;;;;5056456;28;20057;-73
2023/08/16 08:37:31;;;;;;;6.25;2.00;;;21.10;99.90;;;;;;5075083;28;20504;-74
2023/08/16 08:39:57;;;;;;;5.75;1.48;;;21.10;99.90;;;;;;5090900;28;20131;-73
2023/08/16 08:42:26;;;;;;;3.45;1.42;;;21.20;99.90;;;;;;5073769;28;20127;-74
2023/08/16 08:44:53;;;;;;;4.40;1.58;;;21.30;99.90;;;;;;5075280;28;20045;-73
2023/08/16 08:47:19;;;;;;;3.38;1.63;;;21.30;99.90;;;;;;5090796;28;20044;-74
2023/08/16 08:49:45;;;;;;;7.15;1.45;;;21.20;99.90;;;;;;5090565;28;20131;-74
2023/08/16 08:52:11;;;;;;;5.03;1.58;;;21.20;99.90;;;;;;5083602;28;20457;-73
2023/08/16 08:54:37;;;;;;;4.43;1.63;;;21.40;99.90;;;;;;5054709;28;20059;-74
2023/08/16 08:57:05;;;;;;;4.25;1.50;;;21.50;99.90;;;;;;5070210;28;20128;-74
2023/08/16 08:59:34;;;;;;;4.20;1.58;;;21.50;99.90;;;;;;5053625;28;20099;-74
2023/08/16 09:02:01;;;;;;;4.10;1.40;;;21.40;99.90;;;;;;5070060;28;20053;-73
2023/08/16 09:04:29;;;;;;;4.18;1.50;;;21.50;99.90;;;;;;5054553;28;20055;-74
2023/08/16 09:06:56;;;;;;;3.28;1.40;;;21.50;99.90;;;;;;5054507;28;20072;-75
2023/08/16 09:09:23;;;;;;;5.20;1.30;;;21.40;99.90;;;;;;5053121;28;20081;-74
2023/08/16 09:11:48;;;;;;;5.43;1.65;;;21.30;99.90;;;;;;5053457;28;20118;-73
2023/08/16 09:14:14;;;;;;;4.57;1.77;;;21.40;99.90;;;;;;5069551;28;20423;-73
2023/08/16 09:16:42;;;;;;;5.03;1.30;;;21.20;99.90;;;;;;5054568;28;20083;-74
2023/08/16 09:19:14;;;;;;;4.30;1.40;;;21.30;99.90;;;;;;5054287;28;20408;-74
2023/08/16 09:21:46;;;;;;;3.88;1.70;;;21.10;99.90;;;;;;5053085;28;20060;-84
2023/08/16 09:24:12;;;;;;;4.18;1.40;;;21.10;99.90;;;;;;5053084;28;20049;-77
2023/08/16 09:26:38;;;;;;;3.70;1.50;;;21.30;99.90;;;;;;5054232;28;20049;-74
2023/08/16 09:29:04;;;;;;;4.40;1.73;;;21.20;99.90;;;;;;5052797;28;20053;-75
2023/08/16 09:31:37;;;;;;;5.32;1.55;;;21.30;99.90;;;;;;5052974;28;20428;-74
2023/08/16 09:34:04;;;;;;;4.35;1.30;;;21.30;99.90;;;;;;5054333;28;20045;-74
2023/08/16 09:36:37;;;;;;;4.53;1.55;;;21.20;99.90;;;;;;5069816;28;20136;-74
2023/08/16 09:39:07;;;;;;;4.03;1.13;;;21.20;99.90;;;;;;5054084;28;20471;-74
2023/08/16 09:41:32;;;;;;;5.18;1.40;;;21.00;99.90;;;;;;5052792;28;20048;-74
2023/08/16 09:44:06;;;;;;;4.68;1.33;;;21.20;99.90;;;;;;5061523;28;20040;-74
2023/08/16 09:46:32;;;;;;;4.13;1.27;;;21.20;99.90;;;;;;5065674;28;20056;-74
2023/08/16 09:49:03;;;;;;;3.90;1.33;;;21.30;99.90;;;;;;5052585;28;20131;-74
2023/08/16 09:51:31;;;;;;;4.00;1.27;;;21.20;99.90;;;;;;5068999;28;20123;-74
2023/08/16 09:53:57;;;;;;;3.60;1.48;;;21.10;99.90;;;;;;5073351;28;20377;-74
2023/08/16 09:56:25;;;;;;;3.33;1.08;;;21.20;99.90;;;;;;5089678;28;20097;-74
2023/08/16 09:58:54;;;;;;;2.80;1.33;;;21.10;99.90;;;;;;5089604;28;20067;-74
2023/08/16 10:01:20;;;;;;;5.85;1.48;;;21.10;99.90;;;;;;5089922;28;20116;-74
2023/08/16 10:03:53;;;;;;;5.13;0.95;;;21.30;99.90;;;;;;5073697;28;20472;-74
2023/08/16 10:06:21;;;;;;;;;;;21.60;99.90;;;;;;5073122;28;20080;-74
2023/08/16 10:08:48;;;;;;;4.85;1.77;;;21.60;99.90;;;;;;5073797;28;19927;-74
2023/08/16 10:11:14;;;;;;;5.60;1.38;;;21.60;99.90;;;;;;5073838;28;20044;-74
2023/08/16 10:13:40;;;;;;;4.22;1.25;;;21.60;99.90;;;;;;5073668;28;20049;-74
2023/08/16 10:16:11;;;;;;;4.20;1.70;;;21.70;99.90;;;;;;5073599;28;20404;-74
2023/08/16 10:18:41;;;;;;;4.70;1.10;;;21.70;99.90;;;;;;5072576;28;20055;-74
2023/08/16 10:21:09;;;;;;;3.83;1.13;;;21.70;99.90;;;;;;5089044;28;20491;-74
2023/08/16 10:23:38;;;;;;;5.53;1.80;;;22.10;99.90;;;;;;5058276;28;20087;-74
2023/08/16 10:26:07;;;;;;;2.80;1.17;;;22.30;99.90;;;;;;5052175;28;20044;-74
2023/08/16 10:28:34;;;;;;;4.60;1.27;;;22.10;99.90;;;;;;5051737;28;20079;-74
2023/08/16 10:31:01;;;;;;;4.40;1.30;;;22.40;99.90;;;;;;5053463;28;20092;-74
2023/08/16 10:33:43;;;;;;;3.83;1.10;;;22.30;99.90;;;;;;5051998;28;20037;-74
2023/08/16 10:36:10;;;;;;;;;;;22.30;99.90;;;;;;5052827;28;20055;-74
2023/08/16 10:38:37;;;;;;;4.20;1.30;;;22.30;99.90;;;;;;5052086;28;19955;-74
2023/08/16 10:41:09;;;;;;;5.32;1.23;;;22.40;99.90;;;;;;5053496;28;20037;-74
2023/08/16 10:43:35;;;;;;;3.60;1.10;;;22.70;99.90;;;;;;5064060;28;20047;-74
2023/08/16 10:46:01;;;;;;;5.05;1.40;;;22.50;99.90;;;;;;5072236;28;20036;-74
2023/08/16 10:48:33;;;;;;;3.75;1.20;;;22.50;99.90;;;;;;5071885;28;20052;-74
2023/08/16 10:51:04;;;;;;;3.63;1.00;;;22.40;99.90;;;;;;5072373;28;20041;-74
2023/08/16 10:53:30;;;;;;;4.60;1.30;;;22.50;99.90;;;;;;5073450;28;20111;-74
2023/08/16 10:56:03;;;;;;;4.75;1.00;;;22.50;99.90;;;;;;5073401;28;20120;-74
2023/08/16 10:58:29;;;;;;;3.67;1.10;;;22.50;99.90;;;;;;5073278;28;20055;-74
2023/08/16 11:00:57;;;;;;;2.92;1.05;;;22.80;99.90;;;;;;5072096;28;20467;-74
2023/08/16 11:03:33;;;;;;;5.00;1.58;;;22.90;99.90;;;;;;5071910;28;20053;-74
2023/08/16 11:06:00;;;;;;;6.18;1.60;;;22.90;99.90;;;;;;5074779;28;20579;-74
2023/08/16 11:08:30;;;;;;;4.40;0.98;;;22.90;99.90;;;;;;5076938;28;20495;-74
2023/08/16 11:10:57;;;;;;;2.92;1.10;;;22.80;99.90;;;;;;5077361;28;20157;-74
2023/08/16 11:13:23;;;;;;;4.22;1.35;;;22.60;99.90;;;;;;5075896;28;20051;-74
2023/08/16 11:15:48;;;;;;;4.97;1.20;;;22.70;99.90;;;;;;5075866;28;20056;-74
2023/08/16 11:18:24;;;;;;;3.10;1.05;;;22.80;99.90;;;;;;5092407;28;20373;-74
2023/08/16 11:20:53;;;;;;;4.93;1.08;;;22.80;99.90;;;;;;5075750;28;20078;-74
2023/08/16 11:23:18;;;;;;;6.25;1.48;;;22.30;99.90;;;;;;5076986;28;20395;-74
2023/08/16 11:25:44;;;;;;;4.28;1.15;;;22.20;99.90;;;;;;5075486;28;20040;-74
2023/08/16 11:28:12;;;;;;;2.80;1.00;;;22.30;99.90;;;;;;5076335;28;20040;-74
2023/08/16 11:30:37;;;;;;;3.65;1.23;;;22.40;99.90;;;;;;5092261;28;20092;-74
2023/08/16 11:33:05;;;;;;;4.43;1.23;;;22.70;99.90;;;;;;5076650;28;20121;-74
2023/08/16 11:35:31;;;;;;;2.63;1.10;;;22.50;99.90;;;;;;5092356;28;20056;-74
2023/08/16 11:37:56;;;;;;;5.43;1.73;;;22.30;99.90;;;;;;5076690;28;20048;-74
2023/08/16 11:40:22;;;;;;;4.63;1.40;;;22.50;99.90;;;;;;5070397;28;20045;-74
2023/08/16 11:42:51;;;;;;;5.53;1.27;;;22.30;99.90;;;;;;5056606;28;20045;-74
2023/08/16 11:45:21;;;;;;;7.15;1.27;;;22.50;99.90;;;;;;5072002;28;20133;-74
2023/08/16 11:47:51;;;;;;;3.83;1.17;;;22.50;99.90;;;;;;5055202;28;20124;-74
2023/08/16 11:50:18;;;;;;;5.30;1.30;;;22.90;99.90;;;;;;5056497;28;20045;-74
2023/08/16 11:52:45;;;;;;;5.30;1.50;;;23.10;99.90;;;;;;5055271;28;20124;-74
2023/08/16 11:55:14;;;;;;;5.70;1.33;;;22.40;99.90;;;;;;5056231;28;20053;-74
2023/08/16 11:57:47;;;;;;;4.63;1.10;;;22.90;99.90;;;;;;5054855;28;20037;-74
2023/08/16 12:00:16;;;;;;;3.15;1.15;;;22.60;99.90;;;;;;5056104;28;20049;-74
2023/08/16 12:02:45;;;;;;;4.20;1.10;;;22.40;99.90;;;;;;5054677;28;20076;-74
2023/08/16 12:05:14;;;;;;;3.47;1.05;;;22.40;99.90;;;;;;5056160;28;20091;-74
2023/08/16 12:07:49;;;;;;;5.55;1.30;;;22.00;99.90;;;;;;5056092;28;20099;-74
2023/08/16 12:10:24;;;;;;;5.35;1.60;;;22.20;99.90;;;;;;5054895;28;20095;-74
2023/08/16 12:12:54;;;;;;;5.35;1.30;;;22.50;99.90;;;;;;5056020;28;20052;-74
2023/08/16 12:15:24;;;;;;;2.78;1.27;;;22.80;99.90;;;;;;5055964;28;20044;-74
2023/08/16 12:17:51;;;;;;;3.28;1.25;;;23.20;99.90;;;;;;5055135;28;20041;-74
2023/08/16 12:20:17;;;;;;;6.53;1.27;;;23.10;99.90;;;;;;5055666;28;20049;-74
2023/08/16 12:22:44;;;;;;;4.47;1.20;;;23.10;99.90;;;;;;5071318;28;20064;-74
2023/08/16 12:25:10;;;;;;;4.25;1.10;;;23.10;99.90;;;;;;5054264;28;20381;-74
2023/08/16 12:27:35;;;;;;;7.93;1.33;;;23.20;99.90;;;;;;5055388;28;20037;-74
2023/08/16 12:30:04;;;;;;;4.70;1.10;;;23.10;99.90;;;;;;5070664;28;20049;-74
2023/08/16 12:32:31;;;;;;;4.22;1.33;;;23.30;99.90;;;;;;5055534;28;20045;-74
2023/08/16 12:34:59;;;;;;;6.90;1.15;;;23.30;99.90;;;;;;5071032;28;20389;-74
2023/08/16 12:37:25;;;;;;;3.63;1.02;;;23.20;99.90;;;;;;5070933;28;20045;-75
2023/08/16 12:39:53;;;;;;;6.78;1.33;;;23.30;99.90;;;;;;5087638;28;20117;-75